sensor_id;sensor_type;location;lat;lon;timestamp;temperature;humidity
12568;DHT22;6349;50.904;6.136;2023-04-06T00:00:38;4.90;99.90
12568;DHT22;6349;50.904;6.136;2023-04-06T00:02:38;4.90;99.90
12568;DHT22;6349;50.904;6.136;2023-04-06T00:04:39;4.90;99.90
12568;DHT22;6349;50.904;6.136;2023-04-06T00:06:40;4.90;99.90
12568;DHT22;6349;50.904;6.136;2023-04-06T00:08:40;4.90;99.90
12568;DHT22;6349;50.904;6.136;2023-04-06T00:10:41;4.80;99.90
12568;DHT22;6349;50.904;6.136;2023-04-06T00:12:42;4.80;99.90
12568;DHT22;6349;50.904;6.136;2023-04-06T00:14:43;4.80;99.90
12568;DHT22;6349;50.904;6.136;2023-04-06T00:16:44;4.80;99.90
12568;DHT22;6349;50.904;6.136;2023-04-06T00:18:44;4.70;99.90
12568;DHT22;6349;50.904;6.136;2023-04-06T00:20:45;4.80;99.90
12568;DHT22;6349;50.904;6.136;2023-04-06T00:22:46;4.70;99.90
12568;DHT22;6349;50.904;6.136;2023-04-06T00:24:46;4.70;99.90
12568;DHT22;6349;50.904;6.136;2023-04-06T00:26:47;4.70;99.90
12568;DHT22;6349;50.904;6.136;2023-04-06T00:28:48;4.70;99.90
12568;DHT22;6349;50.904;6.136;2023-04-06T00:30:50;4.60;99.90
12568;DHT22;6349;50.904;6.136;2023-04-06T00:32:53;4.70;99.90
12568;DHT22;6349;50.904;6.136;2023-04-06T00:34:53;4.60;99.90
12568;DHT22;6349;50.904;6.136;2023-04-06T00:36:54;4.60;99.90
12568;DHT22;6349;50.904;6.136;2023-04-06T00:38:55;4.60;99.90
12568;DHT22;6349;50.904;6.136;2023-04-06T00:40:56;4.50;99.90
12568;DHT22;6349;50.904;6.136;2023-04-06T00:42:56;4.60;99.90
12568;DHT22;6349;50.904;6.136;2023-04-06T00:45:00;4.60;99.90
12568;DHT22;6349;50.904;6.136;2023-04-06T00:47:01;4.60;99.90
12568;DHT22;6349;50.904;6.136;2023-04-06T00:49:01;4.60;99.90
12568;DHT22;6349;50.904;6.136;2023-04-06T00:51:02;4.60;99.90
12568;DHT22;6349;50.904;6.136;2023-04-06T00:53:03;4.60;99.90
12568;DHT22;6349;50.904;6.136;2023-04-06T00:55:04;4.50;99.90
12568;DHT22;6349;50.904;6.136;2023-04-06T00:57:07;4.50;99.90
12568;DHT22;6349;50.904;6.136;2023-04-06T00:59:11;4.50;99.90
12568;DHT22;6349;50.904;6.136;2023-04-06T01:01:12;4.50;99.90
12568;DHT22;6349;50.904;6.136;2023-04-06T01:03:13;4.50;99.90
12568;DHT22;6349;50.904;6.136;2023-04-06T01:05:14;4.40;99.90
12568;DHT22;6349;50.904;6.136;2023-04-06T01:07:15;4.40;99.90
12568;DHT22;6349;50.904;6.136;2023-04-06T01:09:16;4.40;99.90
12568;DHT22;6349;50.904;6.136;2023-04-06T01:11:17;4.40;99.90
12568;DHT22;6349;50.904;6.136;2023-04-06T01:13:18;4.30;99.90
12568;DHT22;6349;50.904;6.136;2023-04-06T01:15:20;4.30;99.90
12568;DHT22;6349;50.904;6.136;2023-04-06T01:17:21;4.30;99.90
12568;DHT22;6349;50.904;6.136;2023-04-06T01:19:22;4.30;99.90
12568;DHT22;6349;50.904;6.136;2023-04-06T01:21:24;4.20;99.90
12568;DHT22;6349;50.904;6.136;2023-04-06T01:23:25;4.20;99.90
12568;DHT22;6349;50.904;6.136;2023-04-06T01:25:26;4.20;99.90
12568;DHT22;6349;50.904;6.136;2023-04-06T01:27:27;4.20;99.90
12568;DHT22;6349;50.904;6.136;2023-04-06T01:29:28;4.10;99.90
12568;DHT22;6349;50.904;6.136;2023-04-06T01:31:29;4.10;99.90
12568;DHT22;6349;50.904;6.136;2023-04-06T01:33:30;4.10;99.90
12568;DHT22;6349;50.904;6.136;2023-04-06T01:35:30;4.10;99.90
12568;DHT22;6349;50.904;6.136;2023-04-06T01:37:33;4.10;99.90
12568;DHT22;6349;50.904;6.136;2023-04-06T01:39:34;4.20;99.90
12568;DHT22;6349;50.904;6.136;2023-04-06T01:41:35;4.10;99.90
12568;DHT22;6349;50.904;6.136;2023-04-06T01:43:36;4.10;99.90
12568;DHT22;6349;50.904;6.136;2023-04-06T01:45:36;4.10;99.90
12568;DHT22;6349;50.904;6.136;2023-04-06T01:47:37;4.10;99.90
12568;DHT22;6349;50.904;6.136;2023-04-06T01:49:38;4.10;99.90
12568;DHT22;6349;50.904;6.136;2023-04-06T01:51:38;4.10;99.90
12568;DHT22;6349;50.904;6.136;2023-04-06T01:53:39;4.10;99.90
12568;DHT22;6349;50.904;6.136;2023-04-06T01:55:41;4.00;99.90
12568;DHT22;6349;50.904;6.136;2023-04-06T01:57:42;4.00;99.90
12568;DHT22;6349;50.904;6.136;2023-04-06T01:59:42;4.00;99.90
12568;DHT22;6349;50.904;6.136;2023-04-06T02:01:43;4.10;99.90
12568;DHT22;6349;50.904;6.136;2023-04-06T02:03:44;4.10;99.90
12568;DHT22;6349;50.904;6.136;2023-04-06T02:05:44;4.00;99.90
12568;DHT22;6349;50.904;6.136;2023-04-06T02:07:45;4.00;99.90
12568;DHT22;6349;50.904;6.136;2023-04-06T02:09:46;4.00;99.90
12568;DHT22;6349;50.904;6.136;2023-04-06T02:11:47;4.00;99.90
12568;DHT22;6349;50.904;6.136;2023-04-06T02:13:47;4.10;99.90
12568;DHT22;6349;50.904;6.136;2023-04-06T02:15:48;4.00;99.90
12568;DHT22;6349;50.904;6.136;2023-04-06T02:17:49;4.00;99.90
12568;DHT22;6349;50.904;6.136;2023-04-06T02:19:49;3.90;99.90
12568;DHT22;6349;50.904;6.136;2023-04-06T02:21:50;3.90;99.90
12568;DHT22;6349;50.904;6.136;2023-04-06T02:23:51;3.90;99.90
12568;DHT22;6349;50.904;6.136;2023-04-06T02:25:52;3.90;99.90
12568;DHT22;6349;50.904;6.136;2023-04-06T02:27:52;3.90;99.90
12568;DHT22;6349;50.904;6.136;2023-04-06T02:29:53;3.80;99.90
12568;DHT22;6349;50.904;6.136;2023-04-06T02:31:54;3.80;99.90
12568;DHT22;6349;50.904;6.136;2023-04-06T02:33:55;3.80;99.90
12568;DHT22;6349;50.904;6.136;2023-04-06T02:35:55;3.80;99.90
12568;DHT22;6349;50.904;6.136;2023-04-06T02:37:56;3.80;99.90
12568;DHT22;6349;50.904;6.136;2023-04-06T02:39:56;3.80;99.90
12568;DHT22;6349;50.904;6.136;2023-04-06T02:41:57;3.80;99.90
12568;DHT22;6349;50.904;6.136;2023-04-06T02:43:58;3.80;99.90
12568;DHT22;6349;50.904;6.136;2023-04-06T02:45:58;3.80;99.90
12568;DHT22;6349;50.904;6.136;2023-04-06T02:47:59;3.70;99.90
12568;DHT22;6349;50.904;6.136;2023-04-06T02:50:03;3.70;99.90
12568;DHT22;6349;50.904;6.136;2023-04-06T02:52:07;3.70;99.90
12568;DHT22;6349;50.904;6.136;2023-04-06T02:54:07;3.70;99.90
12568;DHT22;6349;50.904;6.136;2023-04-06T02:56:08;3.70;99.90
12568;DHT22;6349;50.904;6.136;2023-04-06T02:58:09;3.70;99.90
12568;DHT22;6349;50.904;6.136;2023-04-06T03:00:10;3.70;99.90
12568;DHT22;6349;50.904;6.136;2023-04-06T03:02:11;3.70;99.90
12568;DHT22;6349;50.904;6.136;2023-04-06T03:04:12;3.70;99.90
12568;DHT22;6349;50.904;6.136;2023-04-06T03:06:12;3.70;99.90
12568;DHT22;6349;50.904;6.136;2023-04-06T03:08:13;3.80;99.90
12568;DHT22;6349;50.904;6.136;2023-04-06T03:10:14;3.80;99.90
12568;DHT22;6349;50.904;6.136;2023-04-06T03:12:15;3.80;99.90
12568;DHT22;6349;50.904;6.136;2023-04-06T03:14:15;3.80;99.90
12568;DHT22;6349;50.904;6.136;2023-04-06T03:16:18;3.70;99.90
12568;DHT22;6349;50.904;6.136;2023-04-06T03:18:22;3.70;99.90
12568;DHT22;6349;50.904;6.136;2023-04-06T03:20:23;3.60;99.90
12568;DHT22;6349;50.904;6.136;2023-04-06T03:22:24;3.60;99.90
12568;DHT22;6349;50.904;6.136;2023-04-06T03:24:25;3.50;99.90
12568;DHT22;6349;50.904;6.136;2023-04-06T03:26:25;3.50;99.90
12568;DHT22;6349;50.904;6.136;2023-04-06T03:28:26;3.50;99.90
12568;DHT22;6349;50.904;6.136;2023-04-06T03:30:27;3.40;99.90
12568;DHT22;6349;50.904;6.136;2023-04-06T03:32:27;3.40;99.90
12568;DHT22;6349;50.904;6.136;2023-04-06T03:34:28;3.40;99.90
12568;DHT22;6349;50.904;6.136;2023-04-06T03:36:28;3.50;99.90
12568;DHT22;6349;50.904;6.136;2023-04-06T03:38:31;3.50;99.90
12568;DHT22;6349;50.904;6.136;2023-04-06T03:40:31;3.50;99.90
12568;DHT22;6349;50.904;6.136;2023-04-06T03:42:32;3.50;99.90
12568;DHT22;6349;50.904;6.136;2023-04-06T03:44:33;3.50;99.90
12568;DHT22;6349;50.904;6.136;2023-04-06T03:46:33;3.50;99.90
12568;DHT22;6349;50.904;6.136;2023-04-06T03:48:34;3.40;99.90
12568;DHT22;6349;50.904;6.136;2023-04-06T03:50:35;3.40;99.90
12568;DHT22;6349;50.904;6.136;2023-04-06T03:52:36;3.40;99.90
12568;DHT22;6349;50.904;6.136;2023-04-06T03:54:37;3.30;99.90
12568;DHT22;6349;50.904;6.136;2023-04-06T03:56:37;3.30;99.90
12568;DHT22;6349;50.904;6.136;2023-04-06T03:58:38;3.40;99.90
12568;DHT22;6349;50.904;6.136;2023-04-06T04:00:39;3.30;99.90
12568;DHT22;6349;50.904;6.136;2023-04-06T04:02:39;3.40;99.90
12568;DHT22;6349;50.904;6.136;2023-04-06T04:04:42;3.40;99.90
12568;DHT22;6349;50.904;6.136;2023-04-06T04:06:43;3.40;99.90
12568;DHT22;6349;50.904;6.136;2023-04-06T04:08:44;3.40;99.90
12568;DHT22;6349;50.904;6.136;2023-04-06T04:10:45;3.40;99.90
12568;DHT22;6349;50.904;6.136;2023-04-06T04:12:45;3.50;99.90
12568;DHT22;6349;50.904;6.136;2023-04-06T04:14:46;3.40;99.90
12568;DHT22;6349;50.904;6.136;2023-04-06T04:16:47;3.40;99.90
12568;DHT22;6349;50.904;6.136;2023-04-06T04:18:47;3.50;99.90
12568;DHT22;6349;50.904;6.136;2023-04-06T04:20:49;3.50;99.90
12568;DHT22;6349;50.904;6.136;2023-04-06T04:22:49;3.50;99.90
12568;DHT22;6349;50.904;6.136;2023-04-06T04:24:50;3.50;99.90
12568;DHT22;6349;50.904;6.136;2023-04-06T04:26:51;3.50;99.90
12568;DHT22;6349;50.904;6.136;2023-04-06T04:28:51;3.50;99.90
12568;DHT22;6349;50.904;6.136;2023-04-06T04:30:52;3.60;99.90
12568;DHT22;6349;50.904;6.136;2023-04-06T04:32:53;3.60;99.90
12568;DHT22;6349;50.904;6.136;2023-04-06T04:34:54;3.60;99.90
12568;DHT22;6349;50.904;6.136;2023-04-06T04:36:55;3.60;99.90
12568;DHT22;6349;50.904;6.136;2023-04-06T04:38:55;3.60;99.90
12568;DHT22;6349;50.904;6.136;2023-04-06T04:40:56;3.60;99.90
12568;DHT22;6349;50.904;6.136;2023-04-06T04:42:57;3.70;99.90
12568;DHT22;6349;50.904;6.136;2023-04-06T04:44:58;3.70;99.90
12568;DHT22;6349;50.904;6.136;2023-04-06T04:46:58;3.70;99.90
12568;DHT22;6349;50.904;6.136;2023-04-06T04:48:59;3.70;99.90
12568;DHT22;6349;50.904;6.136;2023-04-06T04:51:00;3.70;99.90
12568;DHT22;6349;50.904;6.136;2023-04-06T04:53:01;3.70;99.90
12568;DHT22;6349;50.904;6.136;2023-04-06T04:55:01;3.80;99.90
12568;DHT22;6349;50.904;6.136;2023-04-06T04:57:02;3.80;99.90
12568;DHT22;6349;50.904;6.136;2023-04-06T04:59:03;3.80;99.90
12568;DHT22;6349;50.904;6.136;2023-04-06T05:01:03;3.80;99.90
12568;DHT22;6349;50.904;6.136;2023-04-06T05:03:05;3.80;99.90
12568;DHT22;6349;50.904;6.136;2023-04-06T05:05:06;3.90;99.90
12568;DHT22;6349;50.904;6.136;2023-04-06T05:07:08;3.90;99.90
12568;DHT22;6349;50.904;6.136;2023-04-06T05:09:09;3.90;99.90
12568;DHT22;6349;50.904;6.136;2023-04-06T05:11:10;4.00;99.90
12568;DHT22;6349;50.904;6.136;2023-04-06T05:13:11;4.00;99.90
12568;DHT22;6349;50.904;6.136;2023-04-06T05:15:12;4.10;99.90
12568;DHT22;6349;50.904;6.136;2023-04-06T05:17:13;4.00;99.90
12568;DHT22;6349;50.904;6.136;2023-04-06T05:19:13;4.00;99.90
12568;DHT22;6349;50.904;6.136;2023-04-06T05:21:14;4.00;99.90
12568;DHT22;6349;50.904;6.136;2023-04-06T05:23:15;4.00;99.90
12568;DHT22;6349;50.904;6.136;2023-04-06T05:25:15;4.00;99.90
12568;DHT22;6349;50.904;6.136;2023-04-06T05:27:16;4.10;99.90
12568;DHT22;6349;50.904;6.136;2023-04-06T05:29:17;4.10;99.90
12568;DHT22;6349;50.904;6.136;2023-04-06T05:31:18;4.10;99.90
12568;DHT22;6349;50.904;6.136;2023-04-06T05:33:19;4.10;99.90
12568;DHT22;6349;50.904;6.136;2023-04-06T05:35:20;4.20;99.90
12568;DHT22;6349;50.904;6.136;2023-04-06T05:37:21;4.20;99.90
12568;DHT22;6349;50.904;6.136;2023-04-06T05:39:21;4.20;99.90
12568;DHT22;6349;50.904;6.136;2023-04-06T05:41:23;4.40;99.90
12568;DHT22;6349;50.904;6.136;2023-04-06T05:43:23;4.30;99.90
12568;DHT22;6349;50.904;6.136;2023-04-06T05:45:24;4.40;99.90
12568;DHT22;6349;50.904;6.136;2023-04-06T05:47:25;4.50;99.90
12568;DHT22;6349;50.904;6.136;2023-04-06T05:49:26;4.50;99.90
12568;DHT22;6349;50.904;6.136;2023-04-06T05:51:26;4.50;99.90
12568;DHT22;6349;50.904;6.136;2023-04-06T05:53:27;4.50;99.90
12568;DHT22;6349;50.904;6.136;2023-04-06T05:55:29;4.60;99.90
12568;DHT22;6349;50.904;6.136;2023-04-06T05:57:30;4.60;99.90
12568;DHT22;6349;50.904;6.136;2023-04-06T05:59:31;4.60;99.90
12568;DHT22;6349;50.904;6.136;2023-04-06T06:01:33;4.60;99.90
12568;DHT22;6349;50.904;6.136;2023-04-06T06:03:34;4.70;99.90
12568;DHT22;6349;50.904;6.136;2023-04-06T06:05:35;4.70;99.90
12568;DHT22;6349;50.904;6.136;2023-04-06T06:07:35;4.70;99.90
12568;DHT22;6349;50.904;6.136;2023-04-06T06:09:36;4.80;99.90
12568;DHT22;6349;50.904;6.136;2023-04-06T06:11:37;4.80;99.90
12568;DHT22;6349;50.904;6.136;2023-04-06T06:13:40;4.80;99.90
12568;DHT22;6349;50.904;6.136;2023-04-06T06:15:40;5.00;99.90
12568;DHT22;6349;50.904;6.136;2023-04-06T06:17:41;4.90;99.90
12568;DHT22;6349;50.904;6.136;2023-04-06T06:19:42;5.00;99.90
12568;DHT22;6349;50.904;6.136;2023-04-06T06:21:42;5.10;99.90
12568;DHT22;6349;50.904;6.136;2023-04-06T06:23:43;5.10;99.90
12568;DHT22;6349;50.904;6.136;2023-04-06T06:25:44;5.20;99.90
12568;DHT22;6349;50.904;6.136;2023-04-06T06:27:44;5.20;99.90
12568;DHT22;6349;50.904;6.136;2023-04-06T06:29:45;5.30;99.90
12568;DHT22;6349;50.904;6.136;2023-04-06T06:31:46;5.40;99.90
12568;DHT22;6349;50.904;6.136;2023-04-06T06:33:46;5.30;99.90
12568;DHT22;6349;50.904;6.136;2023-04-06T06:35:50;5.40;99.90
12568;DHT22;6349;50.904;6.136;2023-04-06T06:37:52;5.50;99.90
12568;DHT22;6349;50.904;6.136;2023-04-06T06:39:53;5.60;99.90
12568;DHT22;6349;50.904;6.136;2023-04-06T06:41:54;5.60;99.90
12568;DHT22;6349;50.904;6.136;2023-04-06T06:43:55;5.70;99.90
12568;DHT22;6349;50.904;6.136;2023-04-06T06:45:56;5.80;99.90
12568;DHT22;6349;50.904;6.136;2023-04-06T06:47:57;5.90;99.90
12568;DHT22;6349;50.904;6.136;2023-04-06T06:49:57;5.90;99.90
12568;DHT22;6349;50.904;6.136;2023-04-06T06:51:58;6.10;99.90
12568;DHT22;6349;50.904;6.136;2023-04-06T06:53:58;6.20;99.90
12568;DHT22;6349;50.904;6.136;2023-04-06T06:55:59;6.30;99.90
12568;DHT22;6349;50.904;6.136;2023-04-06T06:58:00;6.40;99.90
12568;DHT22;6349;50.904;6.136;2023-04-06T07:00:00;6.40;99.90
12568;DHT22;6349;50.904;6.136;2023-04-06T07:02:01;6.50;99.90
12568;DHT22;6349;50.904;6.136;2023-04-06T07:04:02;6.60;99.90
12568;DHT22;6349;50.904;6.136;2023-04-06T07:06:03;6.70;99.90
12568;DHT22;6349;50.904;6.136;2023-04-06T07:08:03;6.80;99.90
12568;DHT22;6349;50.904;6.136;2023-04-06T07:10:05;6.80;99.90
12568;DHT22;6349;50.904;6.136;2023-04-06T07:12:06;6.90;99.90
12568;DHT22;6349;50.904;6.136;2023-04-06T07:14:06;7.00;99.90
12568;DHT22;6349;50.904;6.136;2023-04-06T07:16:07;7.10;99.90
12568;DHT22;6349;50.904;6.136;2023-04-06T07:18:08;7.20;99.90
12568;DHT22;6349;50.904;6.136;2023-04-06T07:20:09;7.30;99.90
12568;DHT22;6349;50.904;6.136;2023-04-06T07:22:09;7.40;99.90
12568;DHT22;6349;50.904;6.136;2023-04-06T07:24:10;7.40;99.90
12568;DHT22;6349;50.904;6.136;2023-04-06T07:26:11;7.50;99.90
12568;DHT22;6349;50.904;6.136;2023-04-06T07:28:11;7.60;99.90
12568;DHT22;6349;50.904;6.136;2023-04-06T07:30:12;7.60;99.90
12568;DHT22;6349;50.904;6.136;2023-04-06T07:32:13;7.70;99.90
12568;DHT22;6349;50.904;6.136;2023-04-06T07:34:13;7.70;99.90
12568;DHT22;6349;50.904;6.136;2023-04-06T07:36:14;7.90;99.90
12568;DHT22;6349;50.904;6.136;2023-04-06T07:38:14;7.90;99.90
12568;DHT22;6349;50.904;6.136;2023-04-06T07:40:15;8.00;99.90
12568;DHT22;6349;50.904;6.136;2023-04-06T07:42:16;7.90;99.90
12568;DHT22;6349;50.904;6.136;2023-04-06T07:44:16;8.10;99.90
12568;DHT22;6349;50.904;6.136;2023-04-06T07:46:17;8.00;99.90
12568;DHT22;6349;50.904;6.136;2023-04-06T07:48:18;8.10;99.90
12568;DHT22;6349;50.904;6.136;2023-04-06T07:50:18;8.20;99.90
12568;DHT22;6349;50.904;6.136;2023-04-06T07:52:19;8.20;99.90
12568;DHT22;6349;50.904;6.136;2023-04-06T07:54:20;8.20;99.90
12568;DHT22;6349;50.904;6.136;2023-04-06T07:56:21;8.30;99.90
12568;DHT22;6349;50.904;6.136;2023-04-06T07:58:22;8.30;99.90
12568;DHT22;6349;50.904;6.136;2023-04-06T08:00:24;8.40;99.90
12568;DHT22;6349;50.904;6.136;2023-04-06T08:02:26;8.50;99.90
12568;DHT22;6349;50.904;6.136;2023-04-06T08:04:27;8.50;99.90
12568;DHT22;6349;50.904;6.136;2023-04-06T08:06:29;8.60;99.90
12568;DHT22;6349;50.904;6.136;2023-04-06T08:08:32;8.70;99.90
12568;DHT22;6349;50.904;6.136;2023-04-06T08:10:34;8.70;99.90
12568;DHT22;6349;50.904;6.136;2023-04-06T08:12:36;8.70;99.90
12568;DHT22;6349;50.904;6.136;2023-04-06T08:14:38;8.80;99.90
12568;DHT22;6349;50.904;6.136;2023-04-06T08:16:40;8.90;99.90
12568;DHT22;6349;50.904;6.136;2023-04-06T08:18:41;9.00;99.90
12568;DHT22;6349;50.904;6.136;2023-04-06T08:20:43;9.00;99.90
12568;DHT22;6349;50.904;6.136;2023-04-06T08:22:45;8.90;99.90
12568;DHT22;6349;50.904;6.136;2023-04-06T08:24:47;9.00;99.90
12568;DHT22;6349;50.904;6.136;2023-04-06T08:26:49;9.10;99.90
12568;DHT22;6349;50.904;6.136;2023-04-06T08:28:52;9.20;99.90
12568;DHT22;6349;50.904;6.136;2023-04-06T08:30:54;9.20;99.90
12568;DHT22;6349;50.904;6.136;2023-04-06T08:32:56;9.20;99.90
12568;DHT22;6349;50.904;6.136;2023-04-06T08:34:58;9.30;99.90
12568;DHT22;6349;50.904;6.136;2023-04-06T08:36:59;9.30;99.90
12568;DHT22;6349;50.904;6.136;2023-04-06T08:39:02;9.30;99.90
12568;DHT22;6349;50.904;6.136;2023-04-06T08:41:13;9.30;99.90
12568;DHT22;6349;50.904;6.136;2023-04-06T08:43:18;9.30;99.90
12568;DHT22;6349;50.904;6.136;2023-04-06T08:45:21;9.30;99.90
12568;DHT22;6349;50.904;6.136;2023-04-06T08:47:27;9.40;99.90
12568;DHT22;6349;50.904;6.136;2023-04-06T08:49:29;9.40;99.90
12568;DHT22;6349;50.904;6.136;2023-04-06T08:51:31;9.40;99.90
12568;DHT22;6349;50.904;6.136;2023-04-06T08:53:34;9.40;99.90
12568;DHT22;6349;50.904;6.136;2023-04-06T08:55:37;9.40;99.90
12568;DHT22;6349;50.904;6.136;2023-04-06T08:57:39;9.50;99.90
12568;DHT22;6349;50.904;6.136;2023-04-06T08:59:42;9.60;99.90
12568;DHT22;6349;50.904;6.136;2023-04-06T09:01:44;9.60;99.90
12568;DHT22;6349;50.904;6.136;2023-04-06T09:03:49;9.70;99.90
12568;DHT22;6349;50.904;6.136;2023-04-06T09:05:52;9.80;99.90
12568;DHT22;6349;50.904;6.136;2023-04-06T09:07:54;9.80;99.90
12568;DHT22;6349;50.904;6.136;2023-04-06T09:09:55;9.70;99.90
12568;DHT22;6349;50.904;6.136;2023-04-06T09:11:57;9.80;99.90
12568;DHT22;6349;50.904;6.136;2023-04-06T09:14:03;9.70;99.90
12568;DHT22;6349;50.904;6.136;2023-04-06T09:16:05;9.70;99.90
12568;DHT22;6349;50.904;6.136;2023-04-06T09:18:09;9.70;99.90
12568;DHT22;6349;50.904;6.136;2023-04-06T09:20:11;9.70;99.90
12568;DHT22;6349;50.904;6.136;2023-04-06T09:22:15;9.70;99.90
12568;DHT22;6349;50.904;6.136;2023-04-06T09:24:17;9.80;99.90
12568;DHT22;6349;50.904;6.136;2023-04-06T09:26:27;9.90;99.90
12568;DHT22;6349;50.904;6.136;2023-04-06T09:28:40;9.90;99.90
12568;DHT22;6349;50.904;6.136;2023-04-06T09:30:50;9.90;99.90
12568;DHT22;6349;50.904;6.136;2023-04-06T09:32:54;9.90;99.90
12568;DHT22;6349;50.904;6.136;2023-04-06T09:35:06;10.00;99.90
12568;DHT22;6349;50.904;6.136;2023-04-06T09:37:18;10.00;99.90
12568;DHT22;6349;50.904;6.136;2023-04-06T09:39:21;10.10;99.90
12568;DHT22;6349;50.904;6.136;2023-04-06T09:41:31;10.10;99.90
12568;DHT22;6349;50.904;6.136;2023-04-06T09:43:33;10.10;99.90
12568;DHT22;6349;50.904;6.136;2023-04-06T09:45:35;10.20;99.90
12568;DHT22;6349;50.904;6.136;2023-04-06T09:47:40;10.20;99.90
12568;DHT22;6349;50.904;6.136;2023-04-06T09:49:48;10.20;99.90
12568;DHT22;6349;50.904;6.136;2023-04-06T09:51:55;10.20;99.90
12568;DHT22;6349;50.904;6.136;2023-04-06T09:53:59;10.20;99.90
12568;DHT22;6349;50.904;6.136;2023-04-06T09:56:03;10.20;99.90
12568;DHT22;6349;50.904;6.136;2023-04-06T09:58:11;10.30;99.90
12568;DHT22;6349;50.904;6.136;2023-04-06T10:00:17;10.30;99.90
12568;DHT22;6349;50.904;6.136;2023-04-06T10:03:13;10.30;99.90
12568;DHT22;6349;50.904;6.136;2023-04-06T10:05:28;10.30;99.90
12568;DHT22;6349;50.904;6.136;2023-04-06T10:07:31;10.30;99.90
12568;DHT22;6349;50.904;6.136;2023-04-06T10:09:32;10.40;99.90
12568;DHT22;6349;50.904;6.136;2023-04-06T10:11:37;10.40;99.90
12568;DHT22;6349;50.904;6.136;2023-04-06T10:13:38;10.40;99.90
12568;DHT22;6349;50.904;6.136;2023-04-06T10:15:38;10.50;99.90
12568;DHT22;6349;50.904;6.136;2023-04-06T10:17:40;10.50;99.90
12568;DHT22;6349;50.904;6.136;2023-04-06T10:20:03;10.50;99.90
12568;DHT22;6349;50.904;6.136;2023-04-06T10:22:05;10.60;99.90
12568;DHT22;6349;50.904;6.136;2023-04-06T10:24:09;10.60;99.90
12568;DHT22;6349;50.904;6.136;2023-04-06T10:26:20;10.70;99.90
12568;DHT22;6349;50.904;6.136;2023-04-06T10:28:21;10.70;99.90
12568;DHT22;6349;50.904;6.136;2023-04-06T10:30:22;10.80;99.90
12568;DHT22;6349;50.904;6.136;2023-04-06T10:32:35;10.80;99.90
12568;DHT22;6349;50.904;6.136;2023-04-06T10:34:36;10.80;99.90
12568;DHT22;6349;50.904;6.136;2023-04-06T10:36:37;10.90;99.90
12568;DHT22;6349;50.904;6.136;2023-04-06T10:38:40;10.90;99.90
12568;DHT22;6349;50.904;6.136;2023-04-06T10:40:42;10.80;99.90
12568;DHT22;6349;50.904;6.136;2023-04-06T10:42:47;10.90;99.90
12568;DHT22;6349;50.904;6.136;2023-04-06T10:44:49;10.90;99.90
12568;DHT22;6349;50.904;6.136;2023-04-06T10:46:56;10.90;99.90
12568;DHT22;6349;50.904;6.136;2023-04-06T10:48:57;10.90;99.90
12568;DHT22;6349;50.904;6.136;2023-04-06T10:50:58;10.80;99.90
12568;DHT22;6349;50.904;6.136;2023-04-06T10:53:00;10.80;99.90
12568;DHT22;6349;50.904;6.136;2023-04-06T10:55:01;10.80;99.90
12568;DHT22;6349;50.904;6.136;2023-04-06T10:57:02;10.80;99.90
12568;DHT22;6349;50.904;6.136;2023-04-06T10:59:03;10.80;99.90
12568;DHT22;6349;50.904;6.136;2023-04-06T11:01:03;10.80;99.90
12568;DHT22;6349;50.904;6.136;2023-04-06T11:03:04;10.70;99.90
12568;DHT22;6349;50.904;6.136;2023-04-06T11:05:05;10.70;99.90
12568;DHT22;6349;50.904;6.136;2023-04-06T11:07:06;10.70;99.90
12568;DHT22;6349;50.904;6.136;2023-04-06T11:09:09;10.80;99.90
12568;DHT22;6349;50.904;6.136;2023-04-06T11:11:12;10.80;99.90
12568;DHT22;6349;50.904;6.136;2023-04-06T11:13:16;10.90;99.90
12568;DHT22;6349;50.904;6.136;2023-04-06T11:15:17;11.00;99.90
12568;DHT22;6349;50.904;6.136;2023-04-06T11:17:25;10.90;99.90
12568;DHT22;6349;50.904;6.136;2023-04-06T11:19:26;10.90;99.90
12568;DHT22;6349;50.904;6.136;2023-04-06T11:23:39;10.90;99.90
12568;DHT22;6349;50.904;6.136;2023-04-06T11:25:50;10.90;99.90
12568;DHT22;6349;50.904;6.136;2023-04-06T11:27:51;10.90;99.90
12568;DHT22;6349;50.904;6.136;2023-04-06T11:29:52;10.90;99.90
12568;DHT22;6349;50.904;6.136;2023-04-06T11:31:57;10.90;99.90
12568;DHT22;6349;50.904;6.136;2023-04-06T11:33:58;10.80;99.90
12568;DHT22;6349;50.904;6.136;2023-04-06T11:35:59;10.80;99.90
12568;DHT22;6349;50.904;6.136;2023-04-06T11:38:03;10.80;99.90
12568;DHT22;6349;50.904;6.136;2023-04-06T11:40:04;10.90;99.90
12568;DHT22;6349;50.904;6.136;2023-04-06T11:42:08;10.80;99.90
12568;DHT22;6349;50.904;6.136;2023-04-06T11:44:10;10.70;99.90
12568;DHT22;6349;50.904;6.136;2023-04-06T11:46:17;10.70;99.90
12568;DHT22;6349;50.904;6.136;2023-04-06T11:48:19;10.70;99.90
12568;DHT22;6349;50.904;6.136;2023-04-06T11:50:20;10.70;99.90
12568;DHT22;6349;50.904;6.136;2023-04-06T11:52:23;10.70;99.90
12568;DHT22;6349;50.904;6.136;2023-04-06T11:56:31;10.70;99.90
12568;DHT22;6349;50.904;6.136;2023-04-06T11:58:32;10.70;99.90
12568;DHT22;6349;50.904;6.136;2023-04-06T12:00:32;10.70;99.90
12568;DHT22;6349;50.904;6.136;2023-04-06T12:02:36;10.60;99.90
12568;DHT22;6349;50.904;6.136;2023-04-06T12:04:37;10.50;99.90
12568;DHT22;6349;50.904;6.136;2023-04-06T12:06:38;10.50;99.90
12568;DHT22;6349;50.904;6.136;2023-04-06T12:08:39;10.40;99.90
12568;DHT22;6349;50.904;6.136;2023-04-06T12:10:40;10.40;99.90
12568;DHT22;6349;50.904;6.136;2023-04-06T12:12:40;10.50;99.90
12568;DHT22;6349;50.904;6.136;2023-04-06T12:14:43;10.40;99.90
12568;DHT22;6349;50.904;6.136;2023-04-06T12:16:43;10.40;99.90
12568;DHT22;6349;50.904;6.136;2023-04-06T12:18:44;10.30;99.90
12568;DHT22;6349;50.904;6.136;2023-04-06T12:20:45;10.40;99.90
12568;DHT22;6349;50.904;6.136;2023-04-06T12:22:45;10.30;99.90
12568;DHT22;6349;50.904;6.136;2023-04-06T12:24:46;10.30;99.90
12568;DHT22;6349;50.904;6.136;2023-04-06T12:26:47;10.30;99.90
12568;DHT22;6349;50.904;6.136;2023-04-06T12:28:48;10.30;99.90
12568;DHT22;6349;50.904;6.136;2023-04-06T12:30:49;10.30;99.90
12568;DHT22;6349;50.904;6.136;2023-04-06T12:32:50;10.30;99.90
12568;DHT22;6349;50.904;6.136;2023-04-06T12:34:52;10.30;99.90
12568;DHT22;6349;50.904;6.136;2023-04-06T12:36:53;10.20;99.90
12568;DHT22;6349;50.904;6.136;2023-04-06T12:38:53;10.20;99.90
12568;DHT22;6349;50.904;6.136;2023-04-06T12:40:54;10.20;99.90
12568;DHT22;6349;50.904;6.136;2023-04-06T12:42:55;10.20;99.90
12568;DHT22;6349;50.904;6.136;2023-04-06T12:44:55;10.20;99.90
12568;DHT22;6349;50.904;6.136;2023-04-06T12:46:56;10.10;99.90
12568;DHT22;6349;50.904;6.136;2023-04-06T12:48:57;10.20;99.90
12568;DHT22;6349;50.904;6.136;2023-04-06T12:51:05;10.10;99.90
12568;DHT22;6349;50.904;6.136;2023-04-06T12:53:14;10.10;99.90
12568;DHT22;6349;50.904;6.136;2023-04-06T12:55:18;10.00;99.90
12568;DHT22;6349;50.904;6.136;2023-04-06T12:57:18;10.00;99.90
12568;DHT22;6349;50.904;6.136;2023-04-06T12:59:20;9.90;99.90
12568;DHT22;6349;50.904;6.136;2023-04-06T13:01:23;9.90;99.90
12568;DHT22;6349;50.904;6.136;2023-04-06T13:03:28;9.80;99.90
12568;DHT22;6349;50.904;6.136;2023-04-06T13:05:29;9.80;99.90
12568;DHT22;6349;50.904;6.136;2023-04-06T13:07:29;9.70;99.90
12568;DHT22;6349;50.904;6.136;2023-04-06T13:09:30;9.70;99.90
12568;DHT22;6349;50.904;6.136;2023-04-06T13:11:30;9.60;99.90
12568;DHT22;6349;50.904;6.136;2023-04-06T13:13:31;9.60;99.90
12568;DHT22;6349;50.904;6.136;2023-04-06T13:15:33;9.50;99.90